createdAt,value
2022-08-27T00:01:23.789Z,17.70
2022-08-27T00:06:20.474Z,17.80
2022-08-27T00:11:15.000Z,17.70
2022-08-27T00:16:13.042Z,17.70
2022-08-27T00:21:08.491Z,17.70
2022-08-27T00:26:01.893Z,17.70
2022-08-27T00:30:55.515Z,17.70
2022-08-27T00:35:49.022Z,17.70
2022-08-27T00:40:44.218Z,17.70
2022-08-27T00:45:42.741Z,17.80
2022-08-27T00:50:41.055Z,17.80
2022-08-27T00:55:42.022Z,17.80
2022-08-27T01:00:38.021Z,17.80
2022-08-27T01:05:31.637Z,17.80
2022-08-27T01:10:29.767Z,17.70
2022-08-27T01:15:27.885Z,17.70
2022-08-27T01:20:26.859Z,17.80
2022-08-27T01:25:23.629Z,17.80
2022-08-27T01:30:20.780Z,17.80
2022-08-27T01:35:16.329Z,17.90
2022-08-27T01:40:13.672Z,17.90
2022-08-27T01:45:15.762Z,17.90
2022-08-27T01:50:14.005Z,17.90
2022-08-27T01:55:11.943Z,17.70
2022-08-27T02:00:09.697Z,17.70
2022-08-27T02:05:05.274Z,17.80
2022-08-27T02:09:58.663Z,17.80
2022-08-27T02:14:52.379Z,17.80
2022-08-27T02:19:45.734Z,17.90
2022-08-27T02:24:40.497Z,17.90
2022-08-27T02:29:34.351Z,17.90
2022-08-27T02:34:27.700Z,17.90
2022-08-27T02:39:24.225Z,17.90
2022-08-27T02:44:19.189Z,17.90
2022-08-27T02:49:13.022Z,17.90
2022-08-27T02:54:08.112Z,17.70
2022-08-27T02:59:03.144Z,17.70
2022-08-27T03:03:58.622Z,17.70
2022-08-27T03:08:53.380Z,17.80
2022-08-27T03:13:46.893Z,17.80
2022-08-27T03:18:41.708Z,17.70
2022-08-27T03:23:36.603Z,17.60
2022-08-27T03:28:36.245Z,17.60
2022-08-27T03:33:31.579Z,17.70
2022-08-27T03:38:25.908Z,17.60
2022-08-27T03:43:22.794Z,17.60
2022-08-27T03:48:18.734Z,17.60
2022-08-27T03:53:12.621Z,17.60
2022-08-27T03:58:06.032Z,17.60
2022-08-27T04:03:00.815Z,17.50
2022-08-27T04:07:54.129Z,17.50
2022-08-27T04:12:47.441Z,17.50
2022-08-27T04:17:41.575Z,17.60
2022-08-27T04:22:37.223Z,17.60
2022-08-27T04:27:32.020Z,17.70
2022-08-27T04:32:29.046Z,17.60
2022-08-27T04:37:23.349Z,17.60
2022-08-27T04:42:19.311Z,17.60
2022-08-27T04:47:13.383Z,17.60
2022-08-27T04:52:07.639Z,17.60
2022-08-27T04:57:01.382Z,17.50
2022-08-27T05:01:56.120Z,17.30
2022-08-27T05:06:50.758Z,17.40
2022-08-27T05:11:48.097Z,17.50
2022-08-27T05:16:41.834Z,17.60
2022-08-27T05:21:40.489Z,17.60
2022-08-27T05:26:37.386Z,17.60
2022-08-27T05:31:30.929Z,17.60
2022-08-27T05:36:28.161Z,17.60
2022-08-27T05:41:30.253Z,17.60
2022-08-27T05:46:29.215Z,17.70
2022-08-27T05:51:26.738Z,17.70
2022-08-27T05:56:24.373Z,17.70
2022-08-27T06:01:23.699Z,17.70
2022-08-27T06:06:17.097Z,17.70
2022-08-27T06:11:11.695Z,17.80
2022-08-27T06:16:09.433Z,17.80
2022-08-27T06:21:02.765Z,17.80
2022-08-27T06:25:56.889Z,17.90
2022-08-27T06:30:50.298Z,18.00
2022-08-27T06:35:44.952Z,18.00
2022-08-27T06:40:42.642Z,18.00
2022-08-27T06:45:40.262Z,18.10
2022-08-27T06:50:39.766Z,18.00
2022-08-27T06:55:41.202Z,18.20
2022-08-27T07:00:34.623Z,18.20
2022-08-27T07:05:28.200Z,18.30
2022-08-27T07:10:21.896Z,18.30
2022-08-27T07:15:16.840Z,18.30
2022-08-27T07:20:10.685Z,18.30
2022-08-27T07:25:04.225Z,18.30
2022-08-27T07:29:57.544Z,18.20
2022-08-27T07:34:52.232Z,18.20
2022-08-27T07:39:46.406Z,18.30
2022-08-27T07:44:39.772Z,18.40
2022-08-27T07:49:35.387Z,18.40
2022-08-27T07:54:30.200Z,18.40
2022-08-27T07:59:24.457Z,18.40
2022-08-27T08:04:20.267Z,18.40
2022-08-27T08:09:14.014Z,18.40
2022-08-27T08:14:08.782Z,18.50
2022-08-27T08:19:02.098Z,18.50
2022-08-27T08:23:55.593Z,18.60
2022-08-27T08:28:48.939Z,18.60
2022-08-27T08:33:43.692Z,18.60
2022-08-27T08:38:37.837Z,18.60
2022-08-27T08:43:36.874Z,18.70
2022-08-27T08:48:32.669Z,18.70
2022-08-27T08:53:40.519Z,18.80
2022-08-27T08:58:47.146Z,18.80
2022-08-27T09:03:49.121Z,18.80
2022-08-27T09:08:45.234Z,18.80
2022-08-27T10:21:17.238Z,19.80
2022-08-27T10:26:33.600Z,19.80
2022-08-27T10:32:03.718Z,19.80
2022-08-27T11:40:22.439Z,20.60
2022-08-27T11:45:24.755Z,20.60
2022-08-27T11:50:37.372Z,20.60
2022-08-27T11:55:36.561Z,20.60
2022-08-27T12:00:34.676Z,20.80
2022-08-27T12:05:45.547Z,21.10
2022-08-27T12:10:57.513Z,21.40
2022-08-27T12:16:06.900Z,21.40
2022-08-27T12:21:19.343Z,21.60
2022-08-27T12:26:31.964Z,21.60
2022-08-27T12:31:26.077Z,21.80
2022-08-27T12:41:59.537Z,22.10
2022-08-27T12:47:01.898Z,22.30
2022-08-27T12:51:59.957Z,22.00
2022-08-27T12:57:12.538Z,22.00
2022-08-27T13:02:25.779Z,21.80
2022-08-27T13:07:38.131Z,21.80
2022-08-27T13:12:34.153Z,21.70
2022-08-27T13:17:42.752Z,21.60
2022-08-27T13:22:43.635Z,21.50
2022-08-27T13:27:41.700Z,21.30
2022-08-27T13:32:38.626Z,21.10
2022-08-27T13:37:42.575Z,21.00
2022-08-27T13:42:44.744Z,20.90
2022-08-27T13:47:47.838Z,20.90
2022-08-27T13:52:56.962Z,20.90
2022-08-27T13:57:55.128Z,20.90
2022-08-27T14:02:55.550Z,20.90
2022-08-27T14:07:54.272Z,20.90
2022-08-27T14:12:59.342Z,20.90
2022-08-27T14:17:52.812Z,20.90
2022-08-27T14:22:47.138Z,20.90
2022-08-27T14:27:45.104Z,21.10
2022-08-27T14:32:50.401Z,21.20
2022-08-27T14:37:49.719Z,21.20
2022-08-27T14:42:43.178Z,21.10
2022-08-27T14:47:41.113Z,20.90
2022-08-27T14:52:53.518Z,20.60
2022-08-27T14:57:47.177Z,20.50
2022-08-27T15:02:50.982Z,20.30
2022-08-27T15:07:48.491Z,20.30
2022-08-27T15:12:50.671Z,20.20
2022-08-27T15:17:44.269Z,20.10
2022-08-27T15:22:54.382Z,20.00
2022-08-27T15:28:08.094Z,19.90
2022-08-27T15:33:34.909Z,19.80
2022-08-27T15:38:47.243Z,19.80
2022-08-27T15:43:42.358Z,19.60
2022-08-27T15:48:41.662Z,19.60
2022-08-27T15:53:36.181Z,19.70
2022-08-27T15:58:29.780Z,19.80
2022-08-27T16:03:35.897Z,19.80
2022-08-27T16:08:29.795Z,19.90
2022-08-27T16:13:27.844Z,19.80
2022-08-27T16:18:28.265Z,19.80
2022-08-27T16:23:38.970Z,19.70
2022-08-27T16:29:14.475Z,19.70
2022-08-27T16:34:44.259Z,19.70
2022-08-27T16:39:40.671Z,19.70
2022-08-27T16:44:36.263Z,19.60
2022-08-27T16:49:59.976Z,19.50
2022-08-27T17:00:48.200Z,19.50
2022-08-27T17:05:42.963Z,19.50
2022-08-27T17:10:43.366Z,19.50
2022-08-27T17:15:37.099Z,19.50
2022-08-27T17:20:31.691Z,19.50
2022-08-27T17:25:29.985Z,19.50
2022-08-27T17:30:27.687Z,19.50
2022-08-27T17:35:21.150Z,19.50
2022-08-27T17:40:39.963Z,19.40
2022-08-27T17:46:29.348Z,19.40
2022-08-27T17:51:23.609Z,19.50
2022-08-27T17:56:23.109Z,19.40
2022-08-27T18:01:31.727Z,19.20
2022-08-27T18:06:26.581Z,19.30
2022-08-27T18:11:21.747Z,19.30
2022-08-27T18:16:15.086Z,19.20
2022-08-27T18:21:08.505Z,19.20
2022-08-27T18:26:03.362Z,19.20
2022-08-27T18:31:29.954Z,19.20
2022-08-27T18:42:19.410Z,19.10
2022-08-27T18:47:40.765Z,19.00
2022-08-27T18:52:52.379Z,18.90
2022-08-27T18:57:47.473Z,18.80
2022-08-27T19:02:55.464Z,18.80
2022-08-27T19:07:49.030Z,18.80
2022-08-27T19:12:52.552Z,18.70
2022-08-27T19:18:33.729Z,18.60
2022-08-27T19:23:27.187Z,18.50
2022-08-27T19:28:26.950Z,18.50
2022-08-27T19:33:22.454Z,18.50
2022-08-27T19:38:16.555Z,18.60
2022-08-27T19:43:10.542Z,18.60
2022-08-27T19:48:04.743Z,18.60
2022-08-27T19:52:59.532Z,18.60
2022-08-27T19:57:52.988Z,18.70
2022-08-27T20:02:47.848Z,18.70
2022-08-27T20:07:44.254Z,18.70
2022-08-27T20:12:39.120Z,18.50
2022-08-27T20:17:32.417Z,18.50
2022-08-27T20:22:26.988Z,18.50
2022-08-27T20:27:21.639Z,18.50
2022-08-27T20:32:16.555Z,18.50
2022-08-27T20:37:10.127Z,18.30
2022-08-27T20:42:34.401Z,18.30
2022-08-27T20:47:52.956Z,18.30
2022-08-27T20:52:46.923Z,18.30
2022-08-27T20:58:06.327Z,18.40
2022-08-27T21:03:01.592Z,18.40
2022-08-27T21:07:54.978Z,18.30
2022-08-27T21:12:49.461Z,18.20
2022-08-27T21:17:43.332Z,18.10
2022-08-27T21:22:38.407Z,18.10
2022-08-27T21:27:31.752Z,18.10
2022-08-27T21:32:30.139Z,18.00
2022-08-27T21:37:24.132Z,18.00
2022-08-27T21:42:19.544Z,17.90
2022-08-27T21:47:20.908Z,17.90
2022-08-27T21:52:17.361Z,17.90
2022-08-27T21:57:14.336Z,17.90
2022-08-27T22:02:23.219Z,17.90
2022-08-27T22:07:24.340Z,17.80
2022-08-27T22:12:17.695Z,17.70
2022-08-27T22:17:25.263Z,17.70
2022-08-27T22:22:35.903Z,17.70
2022-08-27T22:27:29.509Z,17.60
2022-08-27T22:32:24.231Z,17.60
2022-08-27T22:37:20.079Z,17.60
2022-08-27T22:43:41.445Z,17.50
2022-08-27T22:48:36.246Z,17.50
2022-08-27T22:53:38.316Z,17.40
2022-08-27T23:04:44.804Z,17.30
2022-08-27T23:09:39.128Z,17.20
2022-08-27T23:14:34.279Z,17.10
2022-08-27T23:20:05.946Z,17.10
2022-08-27T23:26:30.396Z,17.10
2022-08-27T23:57:39.838Z,17.00
